createdAt,value
2022-09-18T00:06:22.724Z,82.73
2022-09-18T00:09:32.850Z,82.84
2022-09-18T00:12:41.871Z,82.85
2022-09-18T00:16:04.708Z,83.16
2022-09-18T00:19:11.925Z,82.83
2022-09-18T00:22:23.074Z,83.46
2022-09-18T00:25:30.698Z,83.87
2022-09-18T00:28:40.039Z,83.01
2022-09-18T00:31:55.209Z,83.14
2022-09-18T00:35:06.587Z,83.33
2022-09-18T00:38:18.196Z,82.59
2022-09-18T00:41:31.206Z,82.99
2022-09-18T00:44:41.690Z,83.22
2022-09-18T00:47:54.450Z,82.75
2022-09-18T00:51:01.871Z,82.90
2022-09-18T00:54:18.001Z,82.67
2022-09-18T00:57:27.761Z,82.19
2022-09-18T01:00:35.938Z,82.56
2022-09-18T01:03:44.894Z,83.00
2022-09-18T01:06:56.387Z,82.99
2022-09-18T01:10:16.495Z,81.94
2022-09-18T01:13:34.965Z,81.62
2022-09-18T01:16:49.082Z,80.71
2022-09-18T01:20:25.757Z,78.85
2022-09-18T01:24:03.052Z,78.57
2022-09-18T01:27:12.943Z,76.87
2022-09-18T01:30:32.277Z,77.36
2022-09-18T01:33:43.595Z,76.43
2022-09-18T01:36:56.113Z,76.94
2022-09-18T01:40:15.885Z,76.73
2022-09-18T01:43:24.584Z,77.47
2022-09-18T01:46:34.610Z,78.75
2022-09-18T01:49:46.329Z,80.36
2022-09-18T01:52:59.792Z,81.57
2022-09-18T01:56:12.896Z,82.51
2022-09-18T01:59:30.882Z,82.61
2022-09-18T02:02:47.371Z,83.60
2022-09-18T02:05:58.528Z,84.11
2022-09-18T02:09:16.876Z,84.99
2022-09-18T02:12:29.997Z,85.18
2022-09-18T02:15:41.924Z,84.66
2022-09-18T02:18:59.110Z,85.88
2022-09-18T02:22:14.791Z,85.62
2022-09-18T02:25:41.225Z,86.15
2022-09-18T02:29:52.187Z,86.53
2022-09-18T02:33:22.312Z,87.43
2022-09-18T02:37:25.162Z,87.46
2022-09-18T02:44:38.352Z,88.33
2022-09-18T02:51:55.957Z,88.01
2022-09-18T02:55:43.698Z,87.68
2022-09-18T02:58:57.050Z,87.38
2022-09-18T03:05:46.351Z,87.02
2022-09-18T03:09:10.579Z,87.58
2022-09-18T03:12:18.949Z,88.09
2022-09-18T03:15:24.842Z,88.24
2022-09-18T03:18:33.262Z,87.72
2022-09-18T03:21:42.779Z,87.73
2022-09-18T03:24:52.516Z,88.46
2022-09-18T03:28:04.722Z,87.90
2022-09-18T03:31:11.258Z,87.95
2022-09-18T03:34:19.853Z,87.96
2022-09-18T03:37:28.792Z,87.71
2022-09-18T03:40:38.185Z,88.44
2022-09-18T03:43:47.120Z,87.83
2022-09-18T03:46:53.790Z,87.69
2022-09-18T03:50:01.933Z,87.51
2022-09-18T03:53:10.603Z,87.82
2022-09-18T03:56:18.667Z,87.59
2022-09-18T03:59:28.367Z,87.76
2022-09-18T04:02:38.168Z,88.77
2022-09-18T04:05:44.808Z,88.36
2022-09-18T04:08:51.698Z,88.71
2022-09-18T04:11:59.392Z,88.22
2022-09-18T04:15:07.552Z,88.03
2022-09-18T04:18:17.866Z,87.58
2022-09-18T04:21:25.362Z,87.94
2022-09-18T04:24:32.345Z,87.44
2022-09-18T04:27:40.145Z,87.44
2022-09-18T04:30:50.694Z,88.13
2022-09-18T04:33:59.851Z,88.36
2022-09-18T04:37:10.278Z,87.87
2022-09-18T04:40:26.597Z,88.63
2022-09-18T04:43:39.644Z,88.86
2022-09-18T04:46:55.092Z,89.38
2022-09-18T04:50:05.130Z,89.72
2022-09-18T04:53:10.858Z,88.43
2022-09-18T04:56:17.616Z,88.68
2022-09-18T04:59:25.773Z,88.70
2022-09-18T05:02:35.905Z,88.34
2022-09-18T05:05:42.643Z,88.33
2022-09-18T05:08:50.088Z,88.15
2022-09-18T05:11:56.988Z,88.08
2022-09-18T05:15:04.102Z,88.12
2022-09-18T05:18:16.453Z,87.20
2022-09-18T05:21:23.326Z,88.20
2022-09-18T05:24:31.194Z,88.44
2022-09-18T05:27:41.227Z,89.53
2022-09-18T05:30:51.811Z,90.05
2022-09-18T05:33:59.237Z,90.24
2022-09-18T05:37:05.878Z,90.62
2022-09-18T05:40:18.469Z,90.60
2022-09-18T05:43:25.223Z,90.59
2022-09-18T05:46:32.904Z,90.26
2022-09-18T05:49:42.165Z,90.89
2022-09-18T05:52:51.965Z,90.52
2022-09-18T05:55:58.180Z,90.69
2022-09-18T05:59:08.117Z,90.27
2022-09-18T06:02:15.265Z,90.48
2022-09-18T06:05:23.246Z,90.54
2022-09-18T06:08:34.431Z,90.64
2022-09-18T06:11:41.684Z,90.18
2022-09-18T06:15:05.598Z,90.94
2022-09-18T06:18:15.230Z,90.34
2022-09-18T06:21:25.477Z,91.70
2022-09-18T06:24:50.200Z,90.84
2022-09-18T06:28:22.969Z,91.41
2022-09-18T06:31:58.102Z,91.86
2022-09-18T06:35:04.388Z,91.07
2022-09-18T06:38:16.797Z,91.15
2022-09-18T06:41:50.492Z,91.21
2022-09-18T06:44:57.303Z,91.18
2022-09-18T06:51:56.923Z,91.73
2022-09-18T06:55:36.151Z,90.42
2022-09-18T06:58:44.767Z,90.49
2022-09-18T07:01:57.734Z,90.23
2022-09-18T07:05:07.111Z,90.59
2022-09-18T07:08:19.459Z,90.79
2022-09-18T07:11:27.555Z,90.23
2022-09-18T07:14:36.499Z,89.64
2022-09-18T07:17:45.518Z,90.50
2022-09-18T07:20:51.490Z,90.44
2022-09-18T07:24:00.102Z,89.92
2022-09-18T07:27:08.495Z,91.06
2022-09-18T07:30:23.292Z,90.26
2022-09-18T07:33:31.603Z,89.50
2022-09-18T07:36:44.546Z,89.19
2022-09-18T07:39:56.599Z,89.11
2022-09-18T07:43:13.098Z,88.05
2022-09-18T07:46:21.239Z,88.15
2022-09-18T07:49:27.265Z,88.16
2022-09-18T07:52:34.167Z,87.42
2022-09-18T07:55:43.784Z,86.94
2022-09-18T07:58:53.171Z,85.10
2022-09-18T08:02:02.231Z,83.64
2022-09-18T08:05:08.500Z,84.98
2022-09-18T08:08:18.418Z,84.97
2022-09-18T08:11:25.305Z,83.71
2022-09-18T08:14:33.825Z,82.98
2022-09-18T08:17:47.464Z,81.71
2022-09-18T08:20:54.445Z,82.20
2022-09-18T08:24:03.177Z,81.90
2022-09-18T08:27:09.783Z,82.01
2022-09-18T08:30:18.570Z,82.29
2022-09-18T08:33:26.685Z,83.17
2022-09-18T08:36:37.193Z,82.81
2022-09-18T08:40:05.249Z,80.12
2022-09-18T08:43:19.494Z,79.96
2022-09-18T08:46:35.747Z,80.03
2022-09-18T08:49:51.371Z,79.35
2022-09-18T08:53:03.265Z,77.44
2022-09-18T08:56:17.842Z,77.16
2022-09-18T08:59:36.223Z,77.29
2022-09-18T09:02:47.258Z,78.25
2022-09-18T09:06:01.293Z,79.20
2022-09-18T09:09:38.194Z,78.60
2022-09-18T09:12:52.764Z,78.72
2022-09-18T09:16:03.943Z,78.65
2022-09-18T09:19:25.514Z,79.81
2022-09-18T09:22:35.351Z,78.76
2022-09-18T09:25:45.113Z,79.88
2022-09-18T09:28:55.661Z,78.54
2022-09-18T09:32:01.383Z,78.78
2022-09-18T09:35:22.617Z,78.35
2022-09-18T09:38:42.253Z,77.90
2022-09-18T09:41:50.498Z,77.51
2022-09-18T09:44:56.736Z,78.64
2022-09-18T09:48:07.615Z,77.79
2022-09-18T09:51:18.104Z,78.89
2022-09-18T09:54:21.074Z,77.93
2022-09-18T09:57:32.534Z,78.30
2022-09-18T10:00:40.957Z,77.38
2022-09-18T10:03:56.418Z,75.62
2022-09-18T10:07:11.144Z,74.66
2022-09-18T10:10:22.925Z,73.71
2022-09-18T10:13:31.818Z,73.58
2022-09-18T10:16:39.180Z,73.62
2022-09-18T10:19:44.758Z,75.04
2022-09-18T10:22:49.006Z,71.66
2022-09-18T10:25:55.588Z,70.49
2022-09-18T10:28:58.923Z,70.47
2022-09-18T10:32:02.464Z,70.02
2022-09-18T10:35:55.614Z,69.21
2022-09-18T10:39:01.406Z,69.75
2022-09-18T10:42:05.954Z,68.85
2022-09-18T10:45:23.013Z,68.49
2022-09-18T10:48:27.596Z,67.07
2022-09-18T10:51:30.343Z,66.09
2022-09-18T10:54:34.445Z,65.95
2022-09-18T10:57:39.266Z,64.55
2022-09-18T11:00:48.514Z,62.97
2022-09-18T11:04:01.936Z,59.21
2022-09-18T11:07:07.549Z,59.91
2022-09-18T11:10:17.891Z,60.54
2022-09-18T11:13:24.238Z,59.34
2022-09-18T11:16:37.852Z,59.22
2022-09-18T11:19:41.030Z,56.86
2022-09-18T11:22:45.252Z,58.62
2022-09-18T11:25:50.011Z,57.01
2022-09-18T11:29:02.234Z,57.71
2022-09-18T11:32:14.290Z,56.33
2022-09-18T11:35:19.157Z,58.24
2022-09-18T11:38:22.033Z,57.71
2022-09-18T11:41:31.598Z,55.29
2022-09-18T11:44:35.911Z,55.60
2022-09-18T11:47:44.908Z,55.83
2022-09-18T11:50:47.726Z,56.12
2022-09-18T11:53:55.315Z,56.26
2022-09-18T11:57:01.713Z,56.10
2022-09-18T12:00:08.941Z,55.30
2022-09-18T12:03:18.358Z,56.21
2022-09-18T12:06:29.252Z,53.34
2022-09-18T12:09:56.415Z,51.89
2022-09-18T12:13:41.744Z,53.19
2022-09-18T12:16:50.648Z,53.19
2022-09-18T12:19:57.908Z,50.66
2022-09-18T12:23:02.053Z,51.57
2022-09-18T12:26:11.835Z,53.30
2022-09-18T12:29:25.706Z,52.93
2022-09-18T12:32:55.089Z,52.68
2022-09-18T12:36:34.831Z,53.05
2022-09-18T12:40:04.500Z,52.05
2022-09-18T12:43:26.121Z,50.89
2022-09-18T12:46:48.468Z,51.31
2022-09-18T12:50:03.652Z,50.14
2022-09-18T12:53:23.080Z,49.46
2022-09-18T12:56:41.830Z,48.80
2022-09-18T12:59:59.557Z,49.55
2022-09-18T13:03:12.561Z,49.88
2022-09-18T13:06:20.274Z,51.04
2022-09-18T13:09:27.969Z,51.17
2022-09-18T13:12:36.232Z,50.57
2022-09-18T13:15:44.518Z,51.38
2022-09-18T13:19:05.674Z,52.10
2022-09-18T13:22:17.921Z,52.97
2022-09-18T13:25:35.077Z,52.37
2022-09-18T13:28:46.825Z,53.38
2022-09-18T13:31:57.711Z,54.95
2022-09-18T13:35:08.104Z,53.45
2022-09-18T13:38:18.818Z,52.02
2022-09-18T13:41:30.337Z,51.99
2022-09-18T13:44:39.572Z,51.50
2022-09-18T13:48:05.593Z,53.20
2022-09-18T13:51:22.829Z,51.89
2022-09-18T13:54:33.268Z,52.52
2022-09-18T13:57:42.842Z,53.99
2022-09-18T14:00:53.304Z,55.12
2022-09-18T14:04:02.722Z,54.13
2022-09-18T14:07:48.231Z,54.85
2022-09-18T14:11:17.993Z,54.83
2022-09-18T14:18:20.888Z,54.68
2022-09-18T14:21:34.806Z,55.86
2022-09-18T14:25:01.202Z,55.00
2022-09-18T14:28:09.605Z,55.93
2022-09-18T14:31:31.563Z,55.14
2022-09-18T14:34:42.272Z,53.83
2022-09-18T14:37:47.789Z,55.06
2022-09-18T14:41:06.267Z,55.00
2022-09-18T14:44:22.129Z,56.15
2022-09-18T14:47:31.616Z,55.08
2022-09-18T14:50:38.699Z,55.83
2022-09-18T14:53:47.942Z,55.91
2022-09-18T14:56:58.524Z,56.58
2022-09-18T15:00:18.410Z,56.74
2022-09-18T15:06:58.162Z,53.99
2022-09-18T15:10:03.861Z,54.61
2022-09-18T15:13:14.577Z,53.96
2022-09-18T15:16:24.334Z,54.91
2022-09-18T15:19:30.443Z,55.91
2022-09-18T15:22:35.262Z,55.01
2022-09-18T15:25:44.043Z,54.26
2022-09-18T15:28:52.698Z,53.80
2022-09-18T15:31:58.220Z,53.63
2022-09-18T15:35:03.709Z,54.55
2022-09-18T15:38:16.007Z,55.16
2022-09-18T15:41:31.905Z,54.30
2022-09-18T15:45:12.167Z,54.01
2022-09-18T15:48:37.884Z,53.58
2022-09-18T15:51:43.498Z,55.25
2022-09-18T15:55:07.399Z,55.03
2022-09-18T15:58:26.745Z,55.60
2022-09-18T16:01:35.902Z,55.39
2022-09-18T16:04:42.375Z,56.03
2022-09-18T16:07:57.203Z,56.72
2022-09-18T16:11:02.556Z,55.93
2022-09-18T16:14:30.509Z,56.12
2022-09-18T16:17:40.857Z,56.50
2022-09-18T16:21:03.233Z,56.62
2022-09-18T16:24:11.152Z,55.72
2022-09-18T16:27:18.637Z,55.99
2022-09-18T16:30:25.463Z,55.42
2022-09-18T16:33:32.436Z,55.77
2022-09-18T16:36:40.509Z,56.48
2022-09-18T16:39:45.584Z,55.70
2022-09-18T16:42:50.809Z,54.79
2022-09-18T16:45:56.584Z,55.41
2022-09-18T16:49:02.362Z,55.86
2022-09-18T16:52:10.821Z,55.67
2022-09-18T16:55:16.761Z,55.94
2022-09-18T16:58:23.238Z,56.56
2022-09-18T17:01:36.266Z,55.49
2022-09-18T17:04:53.202Z,55.24
2022-09-18T17:07:59.765Z,56.44
2022-09-18T17:11:05.416Z,56.62
2022-09-18T17:14:10.923Z,56.85
2022-09-18T17:17:16.757Z,56.88
2022-09-18T17:20:23.872Z,57.15
2022-09-18T17:23:31.096Z,57.25
2022-09-18T17:26:39.659Z,56.83
2022-09-18T17:29:44.494Z,57.49
2022-09-18T17:32:49.972Z,57.17
2022-09-18T17:35:55.009Z,56.99
2022-09-18T17:39:05.766Z,56.95
2022-09-18T17:42:10.749Z,57.49
2022-09-18T17:45:15.624Z,57.93
2022-09-18T17:48:20.437Z,56.79
2022-09-18T17:51:28.641Z,56.95
2022-09-18T17:54:36.863Z,56.90
2022-09-18T17:57:44.890Z,56.37
2022-09-18T18:00:50.159Z,56.88
2022-09-18T18:03:54.914Z,58.23
2022-09-18T18:06:59.628Z,57.43
2022-09-18T18:10:06.449Z,56.61
2022-09-18T18:13:11.004Z,56.45
2022-09-18T18:16:23.857Z,57.35
2022-09-18T18:19:29.150Z,57.44
2022-09-18T18:22:34.037Z,57.30
2022-09-18T18:25:40.678Z,57.46
2022-09-18T18:28:45.446Z,57.17
2022-09-18T18:31:52.126Z,57.22
2022-09-18T18:34:57.244Z,57.64
2022-09-18T18:38:02.042Z,57.50
2022-09-18T18:41:11.498Z,58.30
2022-09-18T18:44:18.142Z,57.50
2022-09-18T18:47:25.720Z,57.61
2022-09-18T18:50:34.434Z,57.93
2022-09-18T18:53:39.402Z,57.45
2022-09-18T18:56:46.326Z,57.98
2022-09-18T18:59:51.175Z,57.96
2022-09-18T19:02:56.801Z,57.50
2022-09-18T19:06:03.855Z,58.47
2022-09-18T19:09:11.694Z,57.56
2022-09-18T19:12:18.653Z,58.75
2022-09-18T19:15:23.697Z,58.74
2022-09-18T19:18:28.295Z,58.00
2022-09-18T19:21:33.077Z,58.11
2022-09-18T19:24:37.638Z,58.33
2022-09-18T19:27:44.096Z,58.24
2022-09-18T19:30:49.620Z,58.81
2022-09-18T19:33:55.526Z,58.26
2022-09-18T19:37:00.862Z,58.64
2022-09-18T19:40:06.024Z,58.40
2022-09-18T19:43:17.151Z,57.45
2022-09-18T19:46:35.049Z,57.90
2022-09-18T19:49:40.737Z,58.33
2022-09-18T19:52:48.528Z,59.13
2022-09-18T19:55:56.672Z,59.99
2022-09-18T19:59:03.409Z,59.53
2022-09-18T20:02:09.126Z,61.41
2022-09-18T20:05:14.108Z,62.75
2022-09-18T20:08:21.546Z,63.77
2022-09-18T20:11:26.689Z,64.14
2022-09-18T20:14:34.999Z,64.92
2022-09-18T20:17:40.704Z,64.83
2022-09-18T20:20:50.328Z,66.06
2022-09-18T20:23:58.738Z,65.42
2022-09-18T20:27:03.715Z,67.99
2022-09-18T20:30:12.968Z,69.60
2022-09-18T20:33:18.282Z,69.79
2022-09-18T20:36:23.096Z,70.81
2022-09-18T20:39:28.030Z,71.72
2022-09-18T20:42:32.431Z,71.51
2022-09-18T20:45:36.369Z,73.01
2022-09-18T20:48:41.744Z,73.83
2022-09-18T20:51:44.397Z,74.16
2022-09-18T20:54:47.045Z,74.18
2022-09-18T20:57:49.993Z,75.06
2022-09-18T21:00:55.184Z,75.75
2022-09-18T21:03:59.821Z,75.75
2022-09-18T21:07:02.520Z,76.59
2022-09-18T21:10:06.275Z,77.00
2022-09-18T21:13:08.941Z,77.80
2022-09-18T21:16:14.045Z,78.51
2022-09-18T21:19:19.858Z,78.17
2022-09-18T21:22:22.480Z,78.16
2022-09-18T21:25:25.531Z,79.10
2022-09-18T21:28:28.379Z,78.89
2022-09-18T21:31:39.194Z,78.46
2022-09-18T21:34:42.392Z,79.12
2022-09-18T21:37:45.061Z,79.17
2022-09-18T21:40:47.994Z,79.59
2022-09-18T21:43:53.992Z,80.43
2022-09-18T21:47:00.866Z,80.08
2022-09-18T21:50:03.791Z,80.65
2022-09-18T21:53:06.431Z,80.59
2022-09-18T21:56:10.912Z,80.96
2022-09-18T21:59:15.458Z,81.05
2022-09-18T22:02:22.063Z,81.60
2022-09-18T22:05:25.017Z,82.04
2022-09-18T22:08:29.905Z,82.11
2022-09-18T22:11:36.759Z,82.19
2022-09-18T22:14:39.537Z,81.47
2022-09-18T22:17:43.828Z,81.85
2022-09-18T22:20:46.875Z,82.02
2022-09-18T22:23:50.942Z,81.99
2022-09-18T22:26:56.370Z,82.71
2022-09-18T22:29:58.997Z,82.97
2022-09-18T22:33:05.547Z,82.59
2022-09-18T22:36:08.965Z,81.96
2022-09-18T22:39:12.603Z,81.01
2022-09-18T22:42:15.398Z,81.11
2022-09-18T22:45:18.933Z,81.21
2022-09-18T22:48:23.089Z,81.34
2022-09-18T22:51:27.424Z,82.44
2022-09-18T22:54:30.053Z,83.20
2022-09-18T22:57:32.721Z,83.63
2022-09-18T23:00:35.956Z,84.38
2022-09-18T23:03:40.804Z,85.03
2022-09-18T23:06:43.692Z,85.84
2022-09-18T23:09:47.383Z,85.41
2022-09-18T23:12:50.081Z,85.79
2022-09-18T23:15:52.679Z,86.18
2022-09-18T23:18:58.962Z,87.00
2022-09-18T23:22:02.497Z,85.61
2022-09-18T23:25:05.696Z,85.68
2022-09-18T23:28:08.445Z,86.06
2022-09-18T23:31:14.298Z,85.94
2022-09-18T23:34:20.069Z,86.24
2022-09-18T23:37:22.776Z,85.98
2022-09-18T23:40:25.495Z,86.58
2022-09-18T23:43:28.224Z,86.66
2022-09-18T23:46:33.039Z,86.46
2022-09-18T23:49:37.035Z,86.65
2022-09-18T23:52:39.669Z,86.84
2022-09-18T23:55:42.316Z,87.19
2022-09-18T23:58:45.754Z,86.01
